sensor_id;sensor_type;location;lat;lon;timestamp;P1;durP1;ratioP1;P2;durP2;ratioP2
2934;SDS011;2462;51.456;7.248;2022-07-03T00:00:41;4.43;;;2.93;;
2934;SDS011;2462;51.456;7.248;2022-07-03T00:03:06;4.50;;;2.80;;
2934;SDS011;2462;51.456;7.248;2022-07-03T00:05:32;3.70;;;2.27;;
2934;SDS011;2462;51.456;7.248;2022-07-03T00:07:57;7.33;;;2.20;;
2934;SDS011;2462;51.456;7.248;2022-07-03T00:10:23;5.83;;;2.60;;
2934;SDS011;2462;51.456;7.248;2022-07-03T00:12:49;3.87;;;2.03;;
2934;SDS011;2462;51.456;7.248;2022-07-03T00:15:15;2.80;;;2.23;;
2934;SDS011;2462;51.456;7.248;2022-07-03T00:17:41;3.50;;;2.40;;
2934;SDS011;2462;51.456;7.248;2022-07-03T00:20:07;5.13;;;2.60;;
2934;SDS011;2462;51.456;7.248;2022-07-03T00:22:33;3.67;;;2.17;;
2934;SDS011;2462;51.456;7.248;2022-07-03T00:25:06;3.10;;;1.70;;
2934;SDS011;2462;51.456;7.248;2022-07-03T00:27:35;3.07;;;2.20;;
2934;SDS011;2462;51.456;7.248;2022-07-03T00:30:03;2.53;;;2.30;;
2934;SDS011;2462;51.456;7.248;2022-07-03T00:32:29;3.17;;;2.20;;
2934;SDS011;2462;51.456;7.248;2022-07-03T00:34:56;5.67;;;2.20;;
2934;SDS011;2462;51.456;7.248;2022-07-03T00:37:22;2.83;;;2.10;;
2934;SDS011;2462;51.456;7.248;2022-07-03T00:39:49;2.47;;;2.27;;
2934;SDS011;2462;51.456;7.248;2022-07-03T00:42:15;2.23;;;1.90;;
2934;SDS011;2462;51.456;7.248;2022-07-03T00:47:21;3.57;;;2.10;;
2934;SDS011;2462;51.456;7.248;2022-07-03T00:49:49;3.83;;;2.27;;
2934;SDS011;2462;51.456;7.248;2022-07-03T00:52:22;4.10;;;2.50;;
2934;SDS011;2462;51.456;7.248;2022-07-03T00:54:52;4.43;;;2.27;;
2934;SDS011;2462;51.456;7.248;2022-07-03T00:57:19;4.20;;;2.20;;
2934;SDS011;2462;51.456;7.248;2022-07-03T00:59:46;6.70;;;2.20;;
2934;SDS011;2462;51.456;7.248;2022-07-03T01:18:39;2.43;;;2.03;;
2934;SDS011;2462;51.456;7.248;2022-07-03T01:21:15;2.20;;;1.93;;
2934;SDS011;2462;51.456;7.248;2022-07-03T01:26:48;3.10;;;2.43;;
2934;SDS011;2462;51.456;7.248;2022-07-03T01:29:25;3.97;;;2.20;;
2934;SDS011;2462;51.456;7.248;2022-07-03T01:31:56;3.70;;;2.13;;
2934;SDS011;2462;51.456;7.248;2022-07-03T01:34:25;2.83;;;2.60;;
2934;SDS011;2462;51.456;7.248;2022-07-03T01:36:54;3.90;;;2.10;;
2934;SDS011;2462;51.456;7.248;2022-07-03T01:39:24;3.63;;;2.47;;
2934;SDS011;2462;51.456;7.248;2022-07-03T01:41:52;5.30;;;2.70;;
2934;SDS011;2462;51.456;7.248;2022-07-03T01:44:20;4.20;;;2.37;;
2934;SDS011;2462;51.456;7.248;2022-07-03T01:46:49;4.77;;;2.33;;
2934;SDS011;2462;51.456;7.248;2022-07-03T01:49:19;3.13;;;2.50;;
2934;SDS011;2462;51.456;7.248;2022-07-03T01:51:49;2.67;;;2.40;;
2934;SDS011;2462;51.456;7.248;2022-07-03T01:54:17;3.00;;;2.17;;
2934;SDS011;2462;51.456;7.248;2022-07-03T01:56:44;3.40;;;2.30;;
2934;SDS011;2462;51.456;7.248;2022-07-03T01:59:12;3.43;;;1.97;;
2934;SDS011;2462;51.456;7.248;2022-07-03T02:01:41;3.23;;;1.50;;
2934;SDS011;2462;51.456;7.248;2022-07-03T02:04:29;4.00;;;2.20;;
2934;SDS011;2462;51.456;7.248;2022-07-03T02:07:02;3.50;;;2.10;;
2934;SDS011;2462;51.456;7.248;2022-07-03T02:10:08;2.20;;;1.77;;
2934;SDS011;2462;51.456;7.248;2022-07-03T02:12:27;3.90;;;2.23;;
2934;SDS011;2462;51.456;7.248;2022-07-03T02:15:04;4.97;;;2.50;;
2934;SDS011;2462;51.456;7.248;2022-07-03T02:17:38;2.10;;;1.90;;
2934;SDS011;2462;51.456;7.248;2022-07-03T02:20:07;4.30;;;2.30;;
2934;SDS011;2462;51.456;7.248;2022-07-03T02:22:44;2.27;;;2.07;;
2934;SDS011;2462;51.456;7.248;2022-07-03T02:25:24;3.70;;;2.50;;
2934;SDS011;2462;51.456;7.248;2022-07-03T02:27:55;3.40;;;2.00;;
2934;SDS011;2462;51.456;7.248;2022-07-03T02:30:28;4.23;;;1.60;;
2934;SDS011;2462;51.456;7.248;2022-07-03T02:32:55;3.77;;;2.20;;
2934;SDS011;2462;51.456;7.248;2022-07-03T02:35:27;2.70;;;1.80;;
2934;SDS011;2462;51.456;7.248;2022-07-03T02:38:04;5.93;;;2.47;;
2934;SDS011;2462;51.456;7.248;2022-07-03T02:40:47;5.47;;;1.93;;
2934;SDS011;2462;51.456;7.248;2022-07-03T02:43:38;2.07;;;1.87;;
2934;SDS011;2462;51.456;7.248;2022-07-03T02:46:15;2.30;;;2.03;;
2934;SDS011;2462;51.456;7.248;2022-07-03T02:51:52;3.23;;;2.20;;
2934;SDS011;2462;51.456;7.248;2022-07-03T02:54:34;2.60;;;1.73;;
2934;SDS011;2462;51.456;7.248;2022-07-03T02:57:08;2.90;;;1.97;;
2934;SDS011;2462;51.456;7.248;2022-07-03T02:59:53;3.83;;;2.20;;
2934;SDS011;2462;51.456;7.248;2022-07-03T03:02:25;3.00;;;2.60;;
2934;SDS011;2462;51.456;7.248;2022-07-03T03:11:03;5.60;;;2.10;;
2934;SDS011;2462;51.456;7.248;2022-07-03T03:13:32;3.03;;;2.10;;
2934;SDS011;2462;51.456;7.248;2022-07-03T03:18:34;3.10;;;2.10;;
2934;SDS011;2462;51.456;7.248;2022-07-03T03:21:04;2.20;;;1.70;;
2934;SDS011;2462;51.456;7.248;2022-07-03T03:28:43;2.90;;;2.37;;
2934;SDS011;2462;51.456;7.248;2022-07-03T03:31:09;2.80;;;2.37;;
2934;SDS011;2462;51.456;7.248;2022-07-03T03:33:39;3.60;;;2.00;;
2934;SDS011;2462;51.456;7.248;2022-07-03T03:36:06;2.40;;;2.07;;
2934;SDS011;2462;51.456;7.248;2022-07-03T03:38:32;3.43;;;2.33;;
2934;SDS011;2462;51.456;7.248;2022-07-03T03:40:58;2.43;;;2.20;;
2934;SDS011;2462;51.456;7.248;2022-07-03T03:43:24;2.00;;;1.80;;
2934;SDS011;2462;51.456;7.248;2022-07-03T03:45:50;3.20;;;2.40;;
2934;SDS011;2462;51.456;7.248;2022-07-03T03:48:15;2.27;;;2.00;;
2934;SDS011;2462;51.456;7.248;2022-07-03T03:50:41;6.20;;;2.00;;
2934;SDS011;2462;51.456;7.248;2022-07-03T03:53:08;2.50;;;2.10;;
2934;SDS011;2462;51.456;7.248;2022-07-03T03:55:35;2.70;;;2.17;;
2934;SDS011;2462;51.456;7.248;2022-07-03T03:58:00;5.43;;;2.57;;
2934;SDS011;2462;51.456;7.248;2022-07-03T04:00:26;3.30;;;2.10;;
2934;SDS011;2462;51.456;7.248;2022-07-03T04:02:52;3.40;;;2.30;;
2934;SDS011;2462;51.456;7.248;2022-07-03T04:05:18;4.33;;;3.30;;
2934;SDS011;2462;51.456;7.248;2022-07-03T04:07:44;3.93;;;2.53;;
2934;SDS011;2462;51.456;7.248;2022-07-03T04:10:09;3.83;;;2.40;;
2934;SDS011;2462;51.456;7.248;2022-07-03T04:12:36;2.67;;;2.40;;
2934;SDS011;2462;51.456;7.248;2022-07-03T04:15:01;3.70;;;2.57;;
2934;SDS011;2462;51.456;7.248;2022-07-03T04:17:27;2.23;;;2.00;;
2934;SDS011;2462;51.456;7.248;2022-07-03T04:19:53;2.67;;;2.40;;
2934;SDS011;2462;51.456;7.248;2022-07-03T04:22:18;2.40;;;2.20;;
2934;SDS011;2462;51.456;7.248;2022-07-03T04:24:44;2.40;;;2.13;;
2934;SDS011;2462;51.456;7.248;2022-07-03T04:27:09;2.70;;;2.00;;
2934;SDS011;2462;51.456;7.248;2022-07-03T04:29:35;2.87;;;2.20;;
2934;SDS011;2462;51.456;7.248;2022-07-03T04:32:00;6.40;;;2.43;;
2934;SDS011;2462;51.456;7.248;2022-07-03T04:34:26;7.03;;;2.70;;
2934;SDS011;2462;51.456;7.248;2022-07-03T04:36:51;3.60;;;2.33;;
2934;SDS011;2462;51.456;7.248;2022-07-03T04:39:17;4.03;;;2.20;;
2934;SDS011;2462;51.456;7.248;2022-07-03T04:41:42;2.53;;;2.33;;
2934;SDS011;2462;51.456;7.248;2022-07-03T04:44:08;2.53;;;2.33;;
2934;SDS011;2462;51.456;7.248;2022-07-03T04:46:33;2.30;;;2.10;;
2934;SDS011;2462;51.456;7.248;2022-07-03T04:49:00;2.20;;;2.00;;
2934;SDS011;2462;51.456;7.248;2022-07-03T04:51:25;2.93;;;2.63;;
2934;SDS011;2462;51.456;7.248;2022-07-03T04:53:51;4.00;;;2.20;;
2934;SDS011;2462;51.456;7.248;2022-07-03T04:56:16;3.83;;;2.20;;
2934;SDS011;2462;51.456;7.248;2022-07-03T04:58:42;2.43;;;2.00;;
2934;SDS011;2462;51.456;7.248;2022-07-03T05:01:07;3.57;;;1.57;;
2934;SDS011;2462;51.456;7.248;2022-07-03T05:03:33;4.23;;;1.77;;
2934;SDS011;2462;51.456;7.248;2022-07-03T05:05:58;2.10;;;1.90;;
2934;SDS011;2462;51.456;7.248;2022-07-03T05:08:24;5.13;;;2.80;;
2934;SDS011;2462;51.456;7.248;2022-07-03T05:10:49;1.60;;;1.50;;
2934;SDS011;2462;51.456;7.248;2022-07-03T05:13:15;2.10;;;1.90;;
2934;SDS011;2462;51.456;7.248;2022-07-03T05:15:41;1.87;;;1.60;;
2934;SDS011;2462;51.456;7.248;2022-07-03T05:18:06;2.30;;;1.87;;
2934;SDS011;2462;51.456;7.248;2022-07-03T05:20:32;2.40;;;1.53;;
2934;SDS011;2462;51.456;7.248;2022-07-03T05:22:59;2.03;;;1.53;;
2934;SDS011;2462;51.456;7.248;2022-07-03T05:25:26;2.20;;;1.30;;
2934;SDS011;2462;51.456;7.248;2022-07-03T05:27:53;3.50;;;1.70;;
2934;SDS011;2462;51.456;7.248;2022-07-03T05:30:19;2.00;;;1.80;;
2934;SDS011;2462;51.456;7.248;2022-07-03T05:32:45;2.00;;;1.63;;
2934;SDS011;2462;51.456;7.248;2022-07-03T05:35:11;3.10;;;1.73;;
2934;SDS011;2462;51.456;7.248;2022-07-03T05:37:37;1.80;;;1.40;;
2934;SDS011;2462;51.456;7.248;2022-07-03T05:40:06;2.07;;;1.70;;
2934;SDS011;2462;51.456;7.248;2022-07-03T05:42:32;4.23;;;2.03;;
2934;SDS011;2462;51.456;7.248;2022-07-03T05:44:58;2.00;;;1.70;;
2934;SDS011;2462;51.456;7.248;2022-07-03T05:47:24;2.00;;;1.73;;
2934;SDS011;2462;51.456;7.248;2022-07-03T05:49:50;4.90;;;1.93;;
2934;SDS011;2462;51.456;7.248;2022-07-03T05:52:15;4.30;;;2.10;;
2934;SDS011;2462;51.456;7.248;2022-07-03T05:54:41;2.70;;;2.07;;
2934;SDS011;2462;51.456;7.248;2022-07-03T05:57:07;2.47;;;1.83;;
2934;SDS011;2462;51.456;7.248;2022-07-03T05:59:33;5.30;;;1.73;;
2934;SDS011;2462;51.456;7.248;2022-07-03T06:01:58;2.83;;;2.30;;
2934;SDS011;2462;51.456;7.248;2022-07-03T06:04:24;3.37;;;1.67;;
2934;SDS011;2462;51.456;7.248;2022-07-03T06:06:49;2.17;;;1.80;;
2934;SDS011;2462;51.456;7.248;2022-07-03T06:09:15;1.80;;;1.70;;
2934;SDS011;2462;51.456;7.248;2022-07-03T06:11:40;5.70;;;2.13;;
2934;SDS011;2462;51.456;7.248;2022-07-03T06:14:06;2.30;;;1.53;;
2934;SDS011;2462;51.456;7.248;2022-07-03T06:16:31;4.73;;;2.03;;
2934;SDS011;2462;51.456;7.248;2022-07-03T06:18:58;4.90;;;2.20;;
2934;SDS011;2462;51.456;7.248;2022-07-03T06:21:24;5.73;;;2.63;;
2934;SDS011;2462;51.456;7.248;2022-07-03T06:23:49;3.00;;;2.53;;
2934;SDS011;2462;51.456;7.248;2022-07-03T06:26:15;3.10;;;2.10;;
2934;SDS011;2462;51.456;7.248;2022-07-03T06:28:41;5.17;;;3.07;;
2934;SDS011;2462;51.456;7.248;2022-07-03T06:31:07;3.53;;;2.57;;
2934;SDS011;2462;51.456;7.248;2022-07-03T06:33:33;3.03;;;2.40;;
2934;SDS011;2462;51.456;7.248;2022-07-03T06:35:59;6.03;;;2.43;;
2934;SDS011;2462;51.456;7.248;2022-07-03T06:38:24;3.70;;;2.77;;
2934;SDS011;2462;51.456;7.248;2022-07-03T06:40:50;3.93;;;2.20;;
2934;SDS011;2462;51.456;7.248;2022-07-03T06:43:16;5.70;;;2.83;;
2934;SDS011;2462;51.456;7.248;2022-07-03T06:45:42;2.83;;;2.10;;
2934;SDS011;2462;51.456;7.248;2022-07-03T06:48:07;6.20;;;2.50;;
2934;SDS011;2462;51.456;7.248;2022-07-03T06:50:33;5.80;;;2.50;;
2934;SDS011;2462;51.456;7.248;2022-07-03T06:52:58;4.17;;;2.13;;
2934;SDS011;2462;51.456;7.248;2022-07-03T06:55:24;3.20;;;2.30;;
2934;SDS011;2462;51.456;7.248;2022-07-03T06:57:49;3.20;;;2.50;;
2934;SDS011;2462;51.456;7.248;2022-07-03T07:00:15;3.37;;;2.63;;
2934;SDS011;2462;51.456;7.248;2022-07-03T07:02:40;3.40;;;2.27;;
2934;SDS011;2462;51.456;7.248;2022-07-03T07:05:06;7.20;;;2.67;;
2934;SDS011;2462;51.456;7.248;2022-07-03T07:07:32;4.07;;;2.40;;
2934;SDS011;2462;51.456;7.248;2022-07-03T07:09:58;5.57;;;3.10;;
2934;SDS011;2462;51.456;7.248;2022-07-03T07:12:23;4.13;;;2.77;;
2934;SDS011;2462;51.456;7.248;2022-07-03T07:14:50;6.03;;;2.70;;
2934;SDS011;2462;51.456;7.248;2022-07-03T07:17:16;4.87;;;2.77;;
2934;SDS011;2462;51.456;7.248;2022-07-03T07:19:41;3.53;;;2.40;;
2934;SDS011;2462;51.456;7.248;2022-07-03T07:22:07;3.87;;;2.70;;
2934;SDS011;2462;51.456;7.248;2022-07-03T07:24:32;6.53;;;2.83;;
2934;SDS011;2462;51.456;7.248;2022-07-03T07:26:58;5.03;;;2.23;;
2934;SDS011;2462;51.456;7.248;2022-07-03T07:29:24;5.70;;;3.40;;
2934;SDS011;2462;51.456;7.248;2022-07-03T07:31:50;4.90;;;3.30;;
2934;SDS011;2462;51.456;7.248;2022-07-03T07:34:15;5.80;;;2.60;;
2934;SDS011;2462;51.456;7.248;2022-07-03T07:36:41;4.33;;;2.80;;
2934;SDS011;2462;51.456;7.248;2022-07-03T07:39:06;2.67;;;2.47;;
2934;SDS011;2462;51.456;7.248;2022-07-03T07:41:32;3.63;;;2.40;;
2934;SDS011;2462;51.456;7.248;2022-07-03T07:43:58;4.47;;;2.17;;
2934;SDS011;2462;51.456;7.248;2022-07-03T07:46:24;4.60;;;2.30;;
2934;SDS011;2462;51.456;7.248;2022-07-03T07:48:49;5.70;;;2.10;;
2934;SDS011;2462;51.456;7.248;2022-07-03T07:51:15;6.20;;;2.20;;
2934;SDS011;2462;51.456;7.248;2022-07-03T07:53:41;4.37;;;2.07;;
2934;SDS011;2462;51.456;7.248;2022-07-03T07:56:07;3.87;;;2.03;;
2934;SDS011;2462;51.456;7.248;2022-07-03T07:58:32;4.73;;;2.33;;
2934;SDS011;2462;51.456;7.248;2022-07-03T08:00:58;5.60;;;2.83;;
2934;SDS011;2462;51.456;7.248;2022-07-03T08:03:42;4.80;;;2.37;;
2934;SDS011;2462;51.456;7.248;2022-07-03T08:06:26;6.43;;;2.70;;
2934;SDS011;2462;51.456;7.248;2022-07-03T08:08:51;6.20;;;2.80;;
2934;SDS011;2462;51.456;7.248;2022-07-03T08:11:17;4.27;;;2.77;;
2934;SDS011;2462;51.456;7.248;2022-07-03T08:13:42;5.10;;;2.70;;
2934;SDS011;2462;51.456;7.248;2022-07-03T08:16:10;4.60;;;2.67;;
2934;SDS011;2462;51.456;7.248;2022-07-03T08:18:36;4.07;;;2.87;;
2934;SDS011;2462;51.456;7.248;2022-07-03T08:21:02;3.20;;;2.47;;
2934;SDS011;2462;51.456;7.248;2022-07-03T08:23:27;7.57;;;2.80;;
2934;SDS011;2462;51.456;7.248;2022-07-03T08:25:53;2.27;;;2.07;;
2934;SDS011;2462;51.456;7.248;2022-07-03T08:28:18;4.30;;;2.20;;
2934;SDS011;2462;51.456;7.248;2022-07-03T08:30:44;4.33;;;2.70;;
2934;SDS011;2462;51.456;7.248;2022-07-03T08:33:10;5.53;;;2.43;;
2934;SDS011;2462;51.456;7.248;2022-07-03T08:35:36;9.97;;;2.47;;
2934;SDS011;2462;51.456;7.248;2022-07-03T08:38:01;5.60;;;2.57;;
2934;SDS011;2462;51.456;7.248;2022-07-03T08:40:27;3.63;;;2.33;;
2934;SDS011;2462;51.456;7.248;2022-07-03T08:42:53;3.57;;;2.17;;
2934;SDS011;2462;51.456;7.248;2022-07-03T08:45:21;4.70;;;2.47;;
2934;SDS011;2462;51.456;7.248;2022-07-03T08:47:48;2.70;;;2.27;;
2934;SDS011;2462;51.456;7.248;2022-07-03T08:50:16;5.43;;;2.33;;
2934;SDS011;2462;51.456;7.248;2022-07-03T08:52:43;3.83;;;2.67;;
2934;SDS011;2462;51.456;7.248;2022-07-03T08:55:09;2.70;;;2.30;;
2934;SDS011;2462;51.456;7.248;2022-07-03T08:57:36;4.13;;;2.63;;
2934;SDS011;2462;51.456;7.248;2022-07-03T09:00:04;3.87;;;2.43;;
2934;SDS011;2462;51.456;7.248;2022-07-03T09:02:31;4.50;;;2.83;;
2934;SDS011;2462;51.456;7.248;2022-07-03T09:04:58;4.97;;;3.00;;
2934;SDS011;2462;51.456;7.248;2022-07-03T09:07:26;4.90;;;2.27;;
2934;SDS011;2462;51.456;7.248;2022-07-03T09:09:52;2.87;;;2.10;;
2934;SDS011;2462;51.456;7.248;2022-07-03T09:12:18;4.70;;;2.30;;
2934;SDS011;2462;51.456;7.248;2022-07-03T09:14:44;4.33;;;2.70;;
2934;SDS011;2462;51.456;7.248;2022-07-03T09:17:10;3.23;;;2.10;;
2934;SDS011;2462;51.456;7.248;2022-07-03T09:19:42;4.40;;;3.17;;
2934;SDS011;2462;51.456;7.248;2022-07-03T09:22:25;5.83;;;2.90;;
2934;SDS011;2462;51.456;7.248;2022-07-03T09:24:53;3.57;;;2.40;;
2934;SDS011;2462;51.456;7.248;2022-07-03T09:27:28;4.03;;;2.83;;
2934;SDS011;2462;51.456;7.248;2022-07-03T09:30:01;6.47;;;2.70;;
2934;SDS011;2462;51.456;7.248;2022-07-03T09:37:41;8.53;;;2.90;;
2934;SDS011;2462;51.456;7.248;2022-07-03T09:40:13;5.10;;;2.90;;
2934;SDS011;2462;51.456;7.248;2022-07-03T09:42:38;3.90;;;2.30;;
2934;SDS011;2462;51.456;7.248;2022-07-03T09:45:04;5.43;;;2.90;;
2934;SDS011;2462;51.456;7.248;2022-07-03T09:47:30;9.13;;;2.90;;
2934;SDS011;2462;51.456;7.248;2022-07-03T09:49:56;3.30;;;2.63;;
2934;SDS011;2462;51.456;7.248;2022-07-03T09:52:33;3.00;;;2.53;;
2934;SDS011;2462;51.456;7.248;2022-07-03T09:57:31;4.40;;;2.50;;
2934;SDS011;2462;51.456;7.248;2022-07-03T10:00:19;5.10;;;2.30;;
2934;SDS011;2462;51.456;7.248;2022-07-03T10:05:40;4.63;;;2.60;;
2934;SDS011;2462;51.456;7.248;2022-07-03T10:08:08;3.90;;;2.07;;
2934;SDS011;2462;51.456;7.248;2022-07-03T10:10:48;3.53;;;2.67;;
2934;SDS011;2462;51.456;7.248;2022-07-03T10:13:14;3.43;;;2.47;;
2934;SDS011;2462;51.456;7.248;2022-07-03T10:15:40;5.33;;;2.50;;
2934;SDS011;2462;51.456;7.248;2022-07-03T10:18:08;3.00;;;2.20;;
2934;SDS011;2462;51.456;7.248;2022-07-03T10:20:45;4.73;;;2.30;;
2934;SDS011;2462;51.456;7.248;2022-07-03T10:23:12;5.40;;;3.07;;
2934;SDS011;2462;51.456;7.248;2022-07-03T10:25:43;3.63;;;2.83;;
2934;SDS011;2462;51.456;7.248;2022-07-03T10:28:13;5.50;;;2.53;;
2934;SDS011;2462;51.456;7.248;2022-07-03T10:30:39;3.80;;;2.27;;
2934;SDS011;2462;51.456;7.248;2022-07-03T10:33:07;2.67;;;1.60;;
2934;SDS011;2462;51.456;7.248;2022-07-03T10:35:34;2.23;;;2.07;;
2934;SDS011;2462;51.456;7.248;2022-07-03T10:43:30;2.50;;;1.47;;
2934;SDS011;2462;51.456;7.248;2022-07-03T10:46:21;3.10;;;1.70;;
2934;SDS011;2462;51.456;7.248;2022-07-03T10:51:26;4.13;;;1.87;;
2934;SDS011;2462;51.456;7.248;2022-07-03T11:07:21;5.10;;;4.20;;
2934;SDS011;2462;51.456;7.248;2022-07-03T11:10:15;4.10;;;2.50;;
2934;SDS011;2462;51.456;7.248;2022-07-03T11:15:30;3.10;;;2.60;;
2934;SDS011;2462;51.456;7.248;2022-07-03T11:20:32;3.50;;;1.93;;
2934;SDS011;2462;51.456;7.248;2022-07-03T11:25:39;1.60;;;1.47;;
2934;SDS011;2462;51.456;7.248;2022-07-03T11:28:05;4.33;;;1.80;;
2934;SDS011;2462;51.456;7.248;2022-07-03T11:30:31;2.90;;;2.07;;
2934;SDS011;2462;51.456;7.248;2022-07-03T11:32:57;2.27;;;1.83;;
2934;SDS011;2462;51.456;7.248;2022-07-03T11:38:31;2.97;;;2.60;;
2934;SDS011;2462;51.456;7.248;2022-07-03T11:40:58;3.80;;;2.83;;
2934;SDS011;2462;51.456;7.248;2022-07-03T11:43:24;3.93;;;2.47;;
2934;SDS011;2462;51.456;7.248;2022-07-03T11:45:51;3.67;;;3.20;;
2934;SDS011;2462;51.456;7.248;2022-07-03T11:48:17;3.07;;;2.80;;
2934;SDS011;2462;51.456;7.248;2022-07-03T11:50:45;3.30;;;2.33;;
2934;SDS011;2462;51.456;7.248;2022-07-03T11:53:18;3.47;;;3.10;;
2934;SDS011;2462;51.456;7.248;2022-07-03T11:55:48;13.53;;;11.30;;
2934;SDS011;2462;51.456;7.248;2022-07-03T11:58:22;16.63;;;14.83;;
2934;SDS011;2462;51.456;7.248;2022-07-03T12:00:48;7.83;;;6.97;;
2934;SDS011;2462;51.456;7.248;2022-07-03T12:03:25;4.00;;;3.60;;
2934;SDS011;2462;51.456;7.248;2022-07-03T12:08:22;6.37;;;4.10;;
2934;SDS011;2462;51.456;7.248;2022-07-03T12:10:58;5.43;;;3.00;;
2934;SDS011;2462;51.456;7.248;2022-07-03T12:13:32;3.23;;;2.63;;
2934;SDS011;2462;51.456;7.248;2022-07-03T12:16:08;3.37;;;2.80;;
2934;SDS011;2462;51.456;7.248;2022-07-03T12:21:20;4.70;;;4.10;;
2934;SDS011;2462;51.456;7.248;2022-07-03T12:23:48;4.13;;;3.57;;
2934;SDS011;2462;51.456;7.248;2022-07-03T12:26:34;5.63;;;2.50;;
2934;SDS011;2462;51.456;7.248;2022-07-03T12:29:02;2.40;;;1.60;;
2934;SDS011;2462;51.456;7.248;2022-07-03T12:31:29;3.03;;;1.70;;
2934;SDS011;2462;51.456;7.248;2022-07-03T12:33:56;2.87;;;1.77;;
2934;SDS011;2462;51.456;7.248;2022-07-03T12:36:23;1.73;;;1.60;;
2934;SDS011;2462;51.456;7.248;2022-07-03T12:38:51;2.13;;;1.60;;
2934;SDS011;2462;51.456;7.248;2022-07-03T12:41:18;1.97;;;1.33;;
2934;SDS011;2462;51.456;7.248;2022-07-03T12:43:46;1.63;;;1.27;;
2934;SDS011;2462;51.456;7.248;2022-07-03T12:46:17;2.17;;;1.53;;
2934;SDS011;2462;51.456;7.248;2022-07-03T12:54:53;2.97;;;1.17;;
2934;SDS011;2462;51.456;7.248;2022-07-03T12:57:04;4.70;;;1.30;;
2934;SDS011;2462;51.456;7.248;2022-07-03T13:02:35;1.83;;;1.60;;
2934;SDS011;2462;51.456;7.248;2022-07-03T13:05:17;3.40;;;1.67;;
2934;SDS011;2462;51.456;7.248;2022-07-03T13:07:46;2.50;;;1.47;;
2934;SDS011;2462;51.456;7.248;2022-07-03T13:10:17;3.13;;;1.37;;
2934;SDS011;2462;51.456;7.248;2022-07-03T13:12:45;4.20;;;1.90;;
2934;SDS011;2462;51.456;7.248;2022-07-03T13:15:28;5.90;;;1.50;;
2934;SDS011;2462;51.456;7.248;2022-07-03T13:22:51;2.23;;;1.60;;
2934;SDS011;2462;51.456;7.248;2022-07-03T13:25:22;2.97;;;1.73;;
2934;SDS011;2462;51.456;7.248;2022-07-03T13:27:48;4.10;;;1.70;;
2934;SDS011;2462;51.456;7.248;2022-07-03T13:30:17;3.17;;;1.00;;
2934;SDS011;2462;51.456;7.248;2022-07-03T13:32:44;1.70;;;1.20;;
2934;SDS011;2462;51.456;7.248;2022-07-03T13:35:11;1.60;;;1.33;;
2934;SDS011;2462;51.456;7.248;2022-07-03T13:37:37;4.60;;;1.70;;
2934;SDS011;2462;51.456;7.248;2022-07-03T13:40:03;2.10;;;1.47;;
2934;SDS011;2462;51.456;7.248;2022-07-03T13:42:30;2.43;;;1.50;;
2934;SDS011;2462;51.456;7.248;2022-07-03T13:44:55;3.73;;;2.13;;
2934;SDS011;2462;51.456;7.248;2022-07-03T13:47:21;1.93;;;1.27;;
2934;SDS011;2462;51.456;7.248;2022-07-03T13:49:47;2.43;;;1.30;;
2934;SDS011;2462;51.456;7.248;2022-07-03T13:52:13;1.53;;;1.30;;
2934;SDS011;2462;51.456;7.248;2022-07-03T13:54:38;5.23;;;1.70;;
2934;SDS011;2462;51.456;7.248;2022-07-03T13:57:04;3.33;;;1.30;;
2934;SDS011;2462;51.456;7.248;2022-07-03T13:59:30;2.50;;;1.43;;
2934;SDS011;2462;51.456;7.248;2022-07-03T14:01:56;2.50;;;0.90;;
2934;SDS011;2462;51.456;7.248;2022-07-03T14:04:22;3.37;;;1.50;;
2934;SDS011;2462;51.456;7.248;2022-07-03T14:06:48;2.03;;;1.40;;
2934;SDS011;2462;51.456;7.248;2022-07-03T14:09:14;1.90;;;1.60;;
2934;SDS011;2462;51.456;7.248;2022-07-03T14:11:40;2.40;;;1.30;;
2934;SDS011;2462;51.456;7.248;2022-07-03T14:14:06;2.10;;;1.13;;
2934;SDS011;2462;51.456;7.248;2022-07-03T14:16:31;1.23;;;1.00;;
2934;SDS011;2462;51.456;7.248;2022-07-03T14:18:57;1.37;;;1.23;;
2934;SDS011;2462;51.456;7.248;2022-07-03T14:21:23;1.83;;;1.10;;
2934;SDS011;2462;51.456;7.248;2022-07-03T14:23:49;1.57;;;1.10;;
2934;SDS011;2462;51.456;7.248;2022-07-03T14:26:14;3.83;;;1.47;;
2934;SDS011;2462;51.456;7.248;2022-07-03T14:28:40;2.73;;;1.23;;
2934;SDS011;2462;51.456;7.248;2022-07-03T14:31:24;2.40;;;1.10;;
2934;SDS011;2462;51.456;7.248;2022-07-03T14:33:50;1.90;;;1.10;;
2934;SDS011;2462;51.456;7.248;2022-07-03T14:36:16;1.70;;;1.00;;
2934;SDS011;2462;51.456;7.248;2022-07-03T14:38:42;3.73;;;1.30;;
2934;SDS011;2462;51.456;7.248;2022-07-03T14:41:09;2.10;;;1.10;;
2934;SDS011;2462;51.456;7.248;2022-07-03T14:43:34;1.50;;;1.13;;
2934;SDS011;2462;51.456;7.248;2022-07-03T14:46:00;2.70;;;1.40;;
2934;SDS011;2462;51.456;7.248;2022-07-03T14:48:25;3.43;;;1.40;;
2934;SDS011;2462;51.456;7.248;2022-07-03T14:50:51;2.93;;;0.93;;
2934;SDS011;2462;51.456;7.248;2022-07-03T14:53:18;2.17;;;1.10;;
2934;SDS011;2462;51.456;7.248;2022-07-03T14:55:44;2.90;;;1.50;;
2934;SDS011;2462;51.456;7.248;2022-07-03T14:58:20;2.73;;;1.13;;
2934;SDS011;2462;51.456;7.248;2022-07-03T15:00:51;1.50;;;1.10;;
2934;SDS011;2462;51.456;7.248;2022-07-03T15:05:54;4.53;;;1.27;;
2934;SDS011;2462;51.456;7.248;2022-07-03T15:11:07;1.50;;;1.40;;
2934;SDS011;2462;51.456;7.248;2022-07-03T15:14:01;2.23;;;1.43;;
2934;SDS011;2462;51.456;7.248;2022-07-03T15:16:29;3.43;;;1.70;;
2934;SDS011;2462;51.456;7.248;2022-07-03T15:18:57;1.67;;;1.43;;
2934;SDS011;2462;51.456;7.248;2022-07-03T15:21:25;5.37;;;1.43;;
2934;SDS011;2462;51.456;7.248;2022-07-03T15:24:01;1.83;;;1.20;;
2934;SDS011;2462;51.456;7.248;2022-07-03T15:26:28;1.77;;;1.00;;
2934;SDS011;2462;51.456;7.248;2022-07-03T15:28:56;1.73;;;1.10;;
2934;SDS011;2462;51.456;7.248;2022-07-03T15:31:24;2.40;;;1.10;;
2934;SDS011;2462;51.456;7.248;2022-07-03T15:33:53;2.10;;;1.33;;
2934;SDS011;2462;51.456;7.248;2022-07-03T15:36:19;1.60;;;1.00;;
2934;SDS011;2462;51.456;7.248;2022-07-03T15:38:55;3.10;;;1.33;;
2934;SDS011;2462;51.456;7.248;2022-07-03T15:41:35;4.00;;;1.27;;
2934;SDS011;2462;51.456;7.248;2022-07-03T15:49:53;1.50;;;1.03;;
2934;SDS011;2462;51.456;7.248;2022-07-03T15:52:24;4.17;;;1.40;;
2934;SDS011;2462;51.456;7.248;2022-07-03T15:57:36;1.83;;;1.00;;
2934;SDS011;2462;51.456;7.248;2022-07-03T16:00:21;1.93;;;1.50;;
2934;SDS011;2462;51.456;7.248;2022-07-03T16:03:09;3.40;;;1.20;;
2934;SDS011;2462;51.456;7.248;2022-07-03T16:05:51;4.00;;;1.13;;
2934;SDS011;2462;51.456;7.248;2022-07-03T16:08:19;2.60;;;1.00;;
2934;SDS011;2462;51.456;7.248;2022-07-03T16:10:46;2.33;;;1.00;;
2934;SDS011;2462;51.456;7.248;2022-07-03T16:13:11;3.30;;;1.00;;
2934;SDS011;2462;51.456;7.248;2022-07-03T16:15:37;1.13;;;0.90;;
2934;SDS011;2462;51.456;7.248;2022-07-03T16:18:05;1.43;;;1.03;;
2934;SDS011;2462;51.456;7.248;2022-07-03T16:20:32;1.63;;;1.20;;
2934;SDS011;2462;51.456;7.248;2022-07-03T16:22:59;3.93;;;1.20;;
2934;SDS011;2462;51.456;7.248;2022-07-03T16:25:28;1.97;;;0.90;;
2934;SDS011;2462;51.456;7.248;2022-07-03T16:27:56;5.43;;;1.13;;
2934;SDS011;2462;51.456;7.248;2022-07-03T16:30:22;1.63;;;1.03;;
2934;SDS011;2462;51.456;7.248;2022-07-03T16:32:48;1.70;;;1.20;;
2934;SDS011;2462;51.456;7.248;2022-07-03T16:35:26;6.27;;;1.30;;
2934;SDS011;2462;51.456;7.248;2022-07-03T16:38:03;2.53;;;1.30;;
2934;SDS011;2462;51.456;7.248;2022-07-03T16:40:30;2.50;;;1.50;;
2934;SDS011;2462;51.456;7.248;2022-07-03T16:43:03;2.47;;;1.93;;
2934;SDS011;2462;51.456;7.248;2022-07-03T16:45:30;2.63;;;1.37;;
2934;SDS011;2462;51.456;7.248;2022-07-03T16:48:11;2.40;;;1.03;;
2934;SDS011;2462;51.456;7.248;2022-07-03T16:50:47;1.87;;;1.23;;
2934;SDS011;2462;51.456;7.248;2022-07-03T16:53:16;1.57;;;1.00;;
2934;SDS011;2462;51.456;7.248;2022-07-03T16:55:43;2.83;;;1.30;;
2934;SDS011;2462;51.456;7.248;2022-07-03T16:58:10;2.07;;;1.13;;
2934;SDS011;2462;51.456;7.248;2022-07-03T17:00:38;5.03;;;2.43;;
2934;SDS011;2462;51.456;7.248;2022-07-03T17:03:07;9.43;;;7.60;;
2934;SDS011;2462;51.456;7.248;2022-07-03T17:05:33;4.67;;;3.67;;
2934;SDS011;2462;51.456;7.248;2022-07-03T17:08:00;2.13;;;1.70;;
2934;SDS011;2462;51.456;7.248;2022-07-03T17:10:27;1.50;;;1.40;;
2934;SDS011;2462;51.456;7.248;2022-07-03T17:12:54;3.63;;;1.37;;
2934;SDS011;2462;51.456;7.248;2022-07-03T17:15:22;2.17;;;1.50;;
2934;SDS011;2462;51.456;7.248;2022-07-03T17:18:04;4.87;;;2.23;;